createdAt,value
2018-05-15T00:00:22.651Z,2.70
2018-05-15T00:02:51.193Z,2.30
2018-05-15T00:05:19.017Z,2.50
2018-05-15T00:07:46.939Z,2.60
2018-05-15T00:10:15.430Z,2.00
2018-05-15T00:12:43.235Z,2.67
2018-05-15T00:15:12.790Z,2.77
2018-05-15T00:17:40.657Z,2.50
2018-05-15T00:20:08.621Z,2.17
2018-05-15T00:22:36.395Z,3.10
2018-05-15T00:25:04.353Z,2.83
2018-05-15T00:27:32.217Z,2.13
2018-05-15T00:30:00.185Z,2.27
2018-05-15T00:32:28.046Z,2.43
2018-05-15T00:34:55.815Z,2.77
2018-05-15T00:37:23.679Z,2.40
2018-05-15T00:39:51.546Z,2.40
2018-05-15T00:42:19.179Z,2.40
2018-05-15T00:44:46.868Z,2.50
2018-05-15T00:47:14.628Z,2.67
2018-05-15T00:49:42.214Z,2.40
2018-05-15T00:52:09.740Z,2.60
2018-05-15T00:54:37.238Z,2.80
2018-05-15T00:57:04.771Z,2.80
2018-05-15T00:59:32.268Z,2.37
2018-05-15T01:02:00.558Z,2.73
2018-05-15T01:04:28.851Z,4.57
2018-05-15T01:06:56.450Z,6.40
2018-05-15T01:09:24.035Z,5.40
2018-05-15T01:11:51.564Z,6.83
2018-05-15T01:14:19.084Z,6.80
2018-05-15T01:16:46.607Z,6.47
2018-05-15T01:19:14.148Z,6.87
2018-05-15T01:21:41.681Z,7.33
2018-05-15T01:24:09.186Z,8.17
2018-05-15T01:26:37.520Z,8.00
2018-05-15T01:29:05.066Z,8.07
2018-05-15T01:31:32.684Z,8.50
2018-05-15T01:34:00.948Z,7.40
2018-05-15T01:36:29.254Z,8.47
2018-05-15T01:38:56.763Z,7.47
2018-05-15T01:41:24.301Z,8.60
2018-05-15T01:43:51.825Z,8.57
2018-05-15T01:46:19.330Z,7.80
2018-05-15T01:48:46.868Z,9.17
2018-05-15T01:51:14.375Z,7.63
2018-05-15T01:53:41.911Z,8.30
2018-05-15T01:56:09.414Z,8.30
2018-05-15T01:58:36.908Z,8.17
2018-05-15T02:01:04.434Z,10.47
2018-05-15T02:03:31.942Z,7.67
2018-05-15T02:05:59.467Z,8.07
2018-05-15T02:08:26.979Z,8.37
2018-05-15T02:10:57.232Z,8.97
2018-05-15T02:13:24.739Z,8.70
2018-05-15T02:15:52.272Z,9.10
2018-05-15T02:18:20.725Z,8.90
2018-05-15T02:20:48.227Z,8.47
2018-05-15T02:23:16.527Z,8.37
2018-05-15T02:25:44.835Z,9.50
2018-05-15T02:28:12.383Z,7.63
2018-05-15T02:30:39.888Z,8.80
2018-05-15T02:33:07.424Z,9.80
2018-05-15T02:35:34.921Z,7.93
2018-05-15T02:38:03.285Z,9.30
2018-05-15T02:40:30.884Z,10.07
2018-05-15T02:42:58.403Z,8.97
2018-05-15T02:45:25.943Z,10.00
2018-05-15T02:47:53.459Z,9.67
2018-05-15T02:50:20.999Z,10.67
2018-05-15T02:52:49.259Z,8.10
2018-05-15T02:55:17.537Z,9.13
2018-05-15T02:57:45.848Z,9.90
2018-05-15T03:00:13.356Z,10.00
2018-05-15T03:02:40.887Z,9.60
2018-05-15T03:05:08.425Z,8.87
2018-05-15T03:07:35.932Z,11.73
2018-05-15T03:10:03.464Z,8.93
2018-05-15T03:12:30.960Z,11.90
2018-05-15T03:14:59.250Z,9.07
2018-05-15T03:17:26.769Z,9.60
2018-05-15T03:19:56.248Z,9.80
2018-05-15T03:22:23.758Z,11.13
2018-05-15T03:24:52.053Z,9.90
2018-05-15T03:27:19.755Z,10.53
2018-05-15T03:29:47.267Z,10.30
2018-05-15T03:32:14.791Z,8.83
2018-05-15T03:34:42.286Z,11.40
2018-05-15T03:37:09.807Z,9.23
2018-05-15T03:39:38.818Z,8.83
2018-05-15T03:42:07.201Z,10.70
2018-05-15T03:44:34.728Z,10.47
2018-05-15T03:47:02.379Z,9.90
2018-05-15T03:49:30.884Z,10.40
2018-05-15T03:51:59.166Z,9.40
2018-05-15T03:54:26.703Z,10.13
2018-05-15T03:56:55.717Z,10.83
2018-05-15T03:59:24.010Z,9.87
2018-05-15T04:02:03.502Z,9.87
2018-05-15T04:04:42.919Z,9.97
2018-05-15T04:07:22.284Z,9.63
2018-05-15T04:09:49.858Z,9.87
2018-05-15T04:12:18.164Z,8.97
2018-05-15T04:14:45.692Z,10.13
2018-05-15T04:17:14.045Z,9.30
2018-05-15T04:19:42.327Z,11.17
2018-05-15T04:22:11.361Z,10.13
2018-05-15T04:24:38.879Z,10.70
2018-05-15T04:27:07.168Z,9.87
2018-05-15T04:29:35.456Z,10.70
2018-05-15T04:32:03.034Z,10.30
2018-05-15T04:34:30.534Z,10.47
2018-05-15T04:37:00.018Z,10.00
2018-05-15T04:39:27.523Z,10.30
2018-05-15T04:41:55.799Z,9.43
2018-05-15T04:44:24.087Z,9.83
2018-05-15T04:46:52.564Z,11.50
2018-05-15T04:49:20.141Z,9.87
2018-05-15T04:51:48.368Z,10.03
2018-05-15T04:54:16.660Z,10.00
2018-05-15T04:56:44.943Z,10.43
2018-05-15T04:59:13.211Z,10.77
2018-05-15T05:01:41.504Z,9.40
2018-05-15T05:04:09.006Z,9.30
2018-05-15T05:06:36.539Z,9.77
2018-05-15T05:09:04.047Z,11.00
2018-05-15T05:11:31.602Z,9.70
2018-05-15T05:13:59.304Z,9.77
2018-05-15T05:16:26.811Z,9.40
2018-05-15T05:18:54.395Z,8.60
2018-05-15T05:21:23.615Z,11.33
2018-05-15T05:23:51.135Z,9.83
2018-05-15T05:26:18.633Z,8.40
2018-05-15T05:28:46.158Z,10.70
2018-05-15T05:31:14.433Z,9.00
2018-05-15T05:33:43.220Z,9.23
2018-05-15T05:36:11.612Z,9.40
2018-05-15T05:38:40.100Z,9.97
2018-05-15T05:41:07.679Z,7.50
2018-05-15T05:43:35.177Z,7.57
2018-05-15T05:46:03.507Z,8.00
2018-05-15T05:48:31.002Z,8.50
2018-05-15T05:50:59.478Z,8.70
2018-05-15T05:53:27.111Z,9.00
2018-05-15T05:55:54.671Z,9.23
2018-05-15T05:58:22.219Z,7.90
2018-05-15T06:00:49.730Z,7.43
2018-05-15T06:03:18.026Z,7.40
2018-05-15T06:05:45.524Z,7.23
2018-05-15T06:08:13.020Z,7.37
2018-05-15T06:10:41.315Z,7.47
2018-05-15T06:13:08.814Z,10.37
2018-05-15T06:15:36.658Z,8.73
2018-05-15T06:18:04.406Z,11.50
2018-05-15T06:20:32.286Z,12.20
2018-05-15T06:23:00.061Z,11.87
2018-05-15T06:25:27.915Z,12.80
2018-05-15T06:27:55.779Z,13.00
2018-05-15T06:30:25.182Z,12.77
2018-05-15T06:32:52.836Z,14.60
2018-05-15T06:35:21.529Z,14.53
2018-05-15T06:37:49.392Z,11.93
2018-05-15T06:40:17.257Z,11.63
2018-05-15T06:42:45.123Z,13.10
2018-05-15T06:45:12.988Z,11.07
2018-05-15T06:47:40.751Z,10.60
2018-05-15T06:50:08.616Z,9.50
2018-05-15T06:52:36.687Z,9.90
2018-05-15T06:55:04.448Z,10.87
2018-05-15T06:57:32.317Z,11.23
2018-05-15T07:00:00.183Z,10.33
2018-05-15T07:02:28.044Z,11.03
2018-05-15T07:04:55.670Z,10.07
2018-05-15T07:07:24.898Z,9.43
2018-05-15T07:09:52.440Z,9.70
2018-05-15T07:12:21.109Z,9.20
2018-05-15T07:14:49.387Z,8.43
2018-05-15T07:17:17.677Z,9.60
2018-05-15T07:19:45.190Z,8.77
2018-05-15T07:22:12.715Z,10.80
2018-05-15T07:24:41.182Z,8.27
2018-05-15T07:27:08.748Z,8.37
2018-05-15T07:29:36.264Z,7.40
2018-05-15T07:32:04.573Z,9.23
2018-05-15T07:34:32.076Z,7.97
2018-05-15T07:36:59.583Z,8.50
2018-05-15T07:39:27.107Z,7.00
2018-05-15T07:41:55.414Z,7.90
2018-05-15T07:44:22.931Z,8.07
2018-05-15T07:46:52.397Z,7.90
2018-05-15T07:49:19.902Z,7.50
2018-05-15T07:51:49.143Z,7.90
2018-05-15T07:54:16.660Z,7.33
2018-05-15T07:56:44.940Z,7.33
2018-05-15T07:59:13.251Z,8.10
2018-05-15T08:01:40.743Z,7.57
2018-05-15T08:04:08.271Z,8.03
2018-05-15T08:06:35.765Z,7.20
2018-05-15T08:09:03.265Z,7.13
2018-05-15T08:11:30.791Z,7.13
2018-05-15T08:13:59.083Z,6.70
2018-05-15T08:16:26.665Z,7.70
2018-05-15T08:18:54.155Z,6.80
2018-05-15T08:21:21.679Z,6.33
2018-05-15T08:23:49.227Z,6.40
2018-05-15T08:26:16.727Z,5.80
2018-05-15T08:28:44.243Z,6.73
2018-05-15T08:31:12.694Z,7.13
2018-05-15T08:33:42.952Z,7.00
2018-05-15T08:36:10.460Z,6.57
2018-05-15T08:38:38.746Z,6.63
2018-05-15T08:41:07.016Z,7.20
2018-05-15T08:43:34.512Z,6.33
2018-05-15T08:46:02.032Z,8.20
2018-05-15T08:48:30.310Z,5.83
2018-05-15T08:51:00.575Z,6.10
2018-05-15T08:53:28.725Z,6.93
2018-05-15T08:55:56.248Z,6.30
2018-05-15T08:58:23.749Z,5.40
2018-05-15T09:00:51.287Z,6.20
2018-05-15T09:03:19.555Z,7.50
2018-05-15T09:05:47.831Z,5.83
2018-05-15T09:08:16.119Z,6.30
2018-05-15T09:10:43.620Z,6.23
2018-05-15T09:13:11.166Z,7.13
2018-05-15T09:15:39.611Z,6.37
2018-05-15T09:18:07.132Z,5.73
2018-05-15T09:20:34.643Z,5.87
2018-05-15T09:23:02.180Z,5.73
2018-05-15T09:25:29.706Z,5.63
2018-05-15T09:27:57.228Z,6.00
2018-05-15T09:30:24.739Z,4.97
2018-05-15T09:32:52.262Z,6.23
2018-05-15T09:35:21.740Z,6.30
2018-05-15T09:37:49.292Z,4.33
2018-05-15T09:40:16.799Z,6.43
2018-05-15T09:42:45.813Z,5.93
2018-05-15T09:45:14.105Z,6.20
2018-05-15T09:47:41.603Z,5.50
2018-05-15T09:50:09.140Z,4.73
2018-05-15T09:52:37.579Z,5.57
2018-05-15T09:55:05.871Z,5.50
2018-05-15T09:57:33.403Z,4.83
2018-05-15T10:00:01.700Z,5.67
2018-05-15T10:02:29.190Z,5.63
2018-05-15T10:04:56.692Z,5.57
2018-05-15T10:07:24.971Z,5.10
2018-05-15T10:09:53.251Z,4.83
2018-05-15T10:12:21.535Z,5.50
2018-05-15T10:14:49.796Z,5.07
2018-05-15T10:17:18.081Z,5.57
2018-05-15T10:19:46.343Z,5.40
2018-05-15T10:22:14.621Z,4.80
2018-05-15T10:24:42.900Z,5.43
2018-05-15T10:27:11.187Z,7.20
2018-05-15T10:29:40.721Z,4.83
2018-05-15T10:32:08.214Z,4.80
2018-05-15T10:34:35.737Z,4.80
2018-05-15T10:37:03.244Z,5.13
2018-05-15T10:39:31.527Z,4.90
2018-05-15T10:41:59.892Z,4.30
2018-05-15T10:44:27.313Z,5.07
2018-05-15T10:46:54.847Z,4.47
2018-05-15T10:49:22.344Z,4.37
2018-05-15T10:51:49.879Z,5.47
2018-05-15T10:54:17.382Z,4.87
2018-05-15T10:56:45.667Z,4.80
2018-05-15T10:59:13.926Z,5.00
2018-05-15T11:01:41.428Z,5.33
2018-05-15T11:04:08.950Z,5.13
2018-05-15T11:06:37.210Z,4.60
2018-05-15T11:09:06.236Z,4.23
2018-05-15T11:11:34.682Z,4.70
2018-05-15T11:14:02.962Z,4.77
2018-05-15T11:16:31.222Z,5.20
2018-05-15T11:19:12.182Z,5.03
2018-05-15T11:21:51.652Z,4.90
2018-05-15T11:24:31.841Z,4.70
2018-05-15T11:27:00.078Z,4.30
2018-05-15T11:29:29.290Z,3.87
2018-05-15T11:31:56.819Z,4.50
2018-05-15T11:34:25.823Z,4.30
2018-05-15T11:36:54.112Z,5.37
2018-05-15T11:39:21.619Z,5.20
2018-05-15T11:41:49.238Z,4.27
2018-05-15T11:44:16.693Z,4.47
2018-05-15T11:46:44.219Z,4.20
2018-05-15T11:49:12.377Z,4.63
2018-05-15T11:51:39.690Z,5.33
2018-05-15T11:54:09.488Z,4.00
2018-05-15T11:56:37.010Z,4.80
2018-05-15T11:59:04.508Z,4.33
2018-05-15T12:01:32.003Z,3.90
2018-05-15T12:03:59.550Z,4.07
2018-05-15T12:06:27.063Z,4.43
2018-05-15T12:08:56.582Z,4.87
2018-05-15T12:11:24.080Z,4.33
2018-05-15T12:13:53.557Z,4.27
2018-05-15T12:16:21.051Z,4.90
2018-05-15T12:18:48.552Z,4.23
2018-05-15T12:21:16.071Z,4.90
2018-05-15T12:23:45.100Z,3.50
2018-05-15T12:26:12.611Z,4.43
2018-05-15T12:28:40.122Z,3.77
2018-05-15T12:31:07.652Z,4.37
2018-05-15T12:33:35.944Z,4.20
2018-05-15T12:36:04.404Z,4.27
2018-05-15T12:38:33.601Z,4.17
2018-05-15T12:41:01.871Z,4.47
2018-05-15T12:43:30.162Z,4.27
2018-05-15T12:45:58.435Z,4.30
2018-05-15T12:48:25.980Z,4.13
2018-05-15T12:50:54.263Z,4.37
2018-05-15T12:53:22.551Z,4.20
2018-05-15T12:55:50.068Z,4.23
2018-05-15T12:58:17.570Z,4.63
2018-05-15T13:00:45.091Z,4.33
2018-05-15T13:03:13.359Z,4.67
2018-05-15T13:05:40.872Z,3.73
2018-05-15T13:08:08.388Z,4.20
2018-05-15T13:10:37.607Z,3.60
2018-05-15T13:13:05.130Z,4.30
2018-05-15T13:15:34.143Z,3.93
2018-05-15T13:18:02.439Z,4.00
2018-05-15T13:20:29.931Z,3.30
2018-05-15T13:22:59.419Z,4.00
2018-05-15T13:25:26.916Z,4.70
2018-05-15T13:27:54.422Z,3.30
2018-05-15T13:30:23.913Z,3.57
2018-05-15T13:32:51.424Z,4.80
2018-05-15T13:35:18.970Z,4.23
2018-05-15T13:37:46.497Z,3.70
2018-05-15T13:40:14.011Z,3.60
2018-05-15T13:42:42.271Z,3.20
2018-05-15T13:45:09.790Z,3.67
2018-05-15T13:47:38.251Z,4.03
2018-05-15T13:50:05.758Z,4.40
2018-05-15T13:52:33.284Z,4.17
2018-05-15T13:55:00.785Z,3.77
2018-05-15T13:57:29.077Z,3.33
2018-05-15T13:59:57.343Z,3.43
2018-05-15T14:02:27.583Z,3.83
2018-05-15T14:04:55.847Z,4.27
2018-05-15T14:07:24.131Z,4.07
2018-05-15T14:09:52.395Z,3.87
2018-05-15T14:12:21.664Z,4.20
2018-05-15T14:14:49.156Z,3.10
2018-05-15T14:17:18.364Z,4.07
2018-05-15T14:19:47.875Z,3.40
2018-05-15T14:22:15.367Z,3.57
2018-05-15T14:24:42.971Z,3.50
2018-05-15T14:27:10.391Z,3.70
2018-05-15T14:29:37.913Z,3.70
2018-05-15T14:32:05.415Z,3.30
2018-05-15T14:34:32.936Z,3.50
2018-05-15T14:37:00.438Z,3.40
2018-05-15T14:39:28.705Z,3.30
2018-05-15T14:42:08.164Z,3.73
2018-05-15T14:44:36.439Z,3.67
2018-05-15T14:47:04.719Z,3.17
2018-05-15T14:49:32.980Z,3.10
2018-05-15T14:52:00.506Z,3.23
2018-05-15T14:54:27.999Z,3.80
2018-05-15T14:56:56.284Z,3.70
2018-05-15T14:59:24.550Z,3.53
2018-05-15T15:01:52.819Z,3.60
2018-05-15T15:04:20.336Z,3.50
2018-05-15T15:06:47.848Z,3.43
2018-05-15T15:09:16.196Z,2.90
2018-05-15T15:11:43.700Z,3.20
2018-05-15T15:14:11.237Z,3.40
2018-05-15T15:16:39.499Z,3.50
2018-05-15T15:19:07.008Z,3.50
2018-05-15T15:21:34.529Z,3.40
2018-05-15T15:24:02.799Z,3.13
2018-05-15T15:26:31.091Z,3.43
2018-05-15T15:28:58.588Z,3.00
2018-05-15T15:31:26.116Z,3.40
2018-05-15T15:33:53.608Z,3.40
2018-05-15T15:36:21.112Z,3.30
2018-05-15T15:38:48.631Z,3.60
2018-05-15T15:41:17.081Z,3.97
2018-05-15T15:43:44.600Z,3.47
2018-05-15T15:46:12.102Z,3.10
2018-05-15T15:48:39.624Z,3.00
2018-05-15T15:51:07.135Z,3.27
2018-05-15T15:53:35.573Z,3.30
2018-05-15T15:56:03.096Z,3.07
2018-05-15T15:58:31.359Z,3.27
2018-05-15T16:00:59.647Z,2.90
2018-05-15T16:03:27.922Z,3.00
2018-05-15T16:05:56.216Z,2.97
2018-05-15T16:08:23.712Z,4.00
2018-05-15T16:10:51.203Z,3.60
2018-05-15T16:13:18.719Z,3.57
2018-05-15T16:15:46.219Z,3.40
2018-05-15T16:18:13.736Z,3.13
2018-05-15T16:20:41.242Z,3.40
2018-05-15T16:23:09.532Z,2.80
2018-05-15T16:25:38.016Z,3.40
2018-05-15T16:28:05.588Z,3.07
2018-05-15T16:30:33.087Z,3.00
2018-05-15T16:33:00.588Z,3.20
2018-05-15T16:35:28.118Z,3.07
2018-05-15T16:37:55.629Z,2.63
2018-05-15T16:40:25.148Z,3.33
2018-05-15T16:42:52.686Z,3.17
2018-05-15T16:45:20.203Z,2.80
2018-05-15T16:47:48.489Z,3.20
2018-05-15T16:50:16.777Z,2.73
2018-05-15T16:52:44.279Z,3.00
2018-05-15T16:55:12.728Z,3.03
2018-05-15T16:57:40.246Z,3.37
2018-05-15T17:00:08.522Z,3.20
2018-05-15T17:02:36.070Z,3.10
2018-05-15T17:05:04.535Z,3.57
2018-05-15T17:07:32.059Z,3.07
2018-05-15T17:09:59.567Z,3.27
2018-05-15T17:12:27.855Z,2.90
2018-05-15T17:14:56.135Z,2.63
2018-05-15T17:17:23.644Z,2.47
2018-05-15T17:19:51.181Z,3.57
2018-05-15T17:22:20.682Z,3.53
2018-05-15T17:24:48.254Z,3.23
2018-05-15T17:27:15.751Z,2.90
2018-05-15T17:29:44.061Z,3.17
2018-05-15T17:32:11.631Z,2.60
2018-05-15T17:34:39.131Z,2.40
2018-05-15T17:37:07.422Z,3.40
2018-05-15T17:39:36.661Z,2.80
2018-05-15T17:42:04.187Z,2.73
2018-05-15T17:44:32.442Z,2.90
2018-05-15T17:46:59.966Z,3.13
2018-05-15T17:49:27.477Z,3.40
2018-05-15T17:51:55.735Z,2.67
2018-05-15T17:54:24.031Z,2.77
2018-05-15T17:56:51.535Z,2.63
2018-05-15T17:59:19.060Z,2.77
2018-05-15T18:01:46.560Z,2.50
2018-05-15T18:04:14.080Z,2.80
2018-05-15T18:06:41.580Z,2.80
2018-05-15T18:09:10.828Z,2.90
2018-05-15T18:11:39.292Z,2.50
2018-05-15T18:14:06.808Z,3.13
2018-05-15T18:16:34.332Z,2.93
2018-05-15T18:19:01.845Z,3.40
2018-05-15T18:21:30.196Z,2.70
2018-05-15T18:23:57.664Z,3.20
2018-05-15T18:26:28.059Z,2.90
2018-05-15T18:28:55.551Z,3.23
2018-05-15T18:31:23.056Z,2.53
2018-05-15T18:33:50.614Z,2.67
2018-05-15T18:36:18.135Z,3.90
2018-05-15T18:38:46.422Z,2.80
2018-05-15T18:41:14.687Z,2.70
2018-05-15T18:43:42.967Z,2.70
2018-05-15T18:46:11.246Z,3.40
2018-05-15T18:48:39.528Z,2.53
2018-05-15T18:51:07.283Z,2.53
2018-05-15T18:53:35.010Z,3.23
2018-05-15T18:56:03.552Z,3.23
2018-05-15T18:58:31.479Z,2.83
2018-05-15T19:00:59.870Z,2.93
2018-05-15T19:03:28.684Z,3.60
2018-05-15T19:05:57.259Z,3.20
2018-05-15T19:08:25.131Z,3.17
2018-05-15T19:10:53.918Z,2.43
2018-05-15T19:13:22.704Z,3.57
2018-05-15T19:15:50.403Z,3.00
2018-05-15T19:18:18.229Z,2.60
2018-05-15T19:20:46.100Z,3.23
2018-05-15T19:23:14.986Z,2.80
2018-05-15T19:25:42.544Z,3.00
2018-05-15T19:28:10.097Z,2.67
2018-05-15T19:30:37.602Z,2.87
2018-05-15T19:35:41.577Z,3.87
2018-05-15T19:38:09.085Z,2.97
2018-05-15T19:40:41.500Z,2.27
2018-05-15T19:43:09.004Z,3.40
2018-05-15T19:45:36.531Z,2.00
2018-05-15T19:48:04.958Z,3.10
2018-05-15T19:50:32.453Z,2.63
2018-05-15T19:52:59.980Z,3.00
2018-05-15T19:55:28.272Z,3.10
2018-05-15T19:57:56.564Z,2.70
2018-05-15T20:00:24.207Z,1.93
2018-05-15T20:02:51.867Z,2.50
2018-05-15T20:05:20.148Z,2.77
2018-05-15T20:07:47.928Z,2.43
2018-05-15T20:10:15.465Z,2.43
2018-05-15T20:12:43.014Z,2.30
2018-05-15T20:15:12.295Z,2.97
2018-05-15T20:17:39.811Z,2.60
2018-05-15T20:20:07.460Z,2.43
2018-05-15T20:22:34.976Z,2.60
2018-05-15T20:25:03.261Z,2.33
2018-05-15T20:27:31.524Z,2.60
2018-05-15T20:29:59.047Z,2.53
2018-05-15T20:32:26.555Z,2.87
2018-05-15T20:34:54.839Z,2.87
2018-05-15T20:37:22.376Z,2.43
2018-05-15T20:39:50.665Z,2.10
2018-05-15T20:42:18.214Z,2.40
2018-05-15T20:44:46.492Z,2.60
2018-05-15T20:47:14.784Z,2.40
2018-05-15T20:49:42.335Z,2.40
2018-05-15T20:52:09.893Z,2.70
2018-05-15T20:54:37.385Z,2.90
2018-05-15T20:57:05.237Z,2.80
2018-05-15T20:59:32.926Z,2.50
2018-05-15T21:02:00.653Z,2.57
2018-05-15T21:04:28.448Z,2.60
2018-05-15T21:06:57.721Z,2.50
2018-05-15T21:09:25.588Z,2.40
2018-05-15T21:11:53.348Z,2.83
2018-05-15T21:14:21.083Z,2.47
2018-05-15T21:16:49.623Z,2.60
2018-05-15T21:19:17.403Z,2.70
2018-05-15T21:21:45.845Z,2.67
2018-05-15T21:24:13.577Z,2.53
2018-05-15T21:26:41.258Z,2.27
2018-05-15T21:29:10.052Z,2.37
2018-05-15T21:31:37.910Z,2.40
2018-05-15T21:34:05.683Z,2.40
2018-05-15T21:36:33.338Z,2.20
2018-05-15T21:39:01.790Z,2.30
2018-05-15T21:41:29.316Z,2.60
2018-05-15T21:43:56.839Z,2.37
2018-05-15T21:46:24.358Z,2.33
2018-05-15T21:48:52.660Z,2.53
2018-05-15T21:51:20.238Z,2.17
2018-05-15T21:53:47.734Z,2.23
2018-05-15T21:56:17.385Z,2.60
2018-05-15T21:58:45.248Z,2.60
2018-05-15T22:01:12.912Z,2.37
2018-05-15T22:03:40.458Z,2.50
2018-05-15T22:06:07.997Z,1.87
2018-05-15T22:08:37.669Z,2.63
2018-05-15T22:11:13.896Z,2.30
2018-05-15T22:13:55.084Z,2.43
2018-05-15T22:16:36.404Z,2.63
2018-05-15T22:19:16.709Z,2.10
2018-05-15T22:21:56.459Z,2.80
2018-05-15T22:24:31.383Z,2.10
2018-05-15T22:26:59.282Z,2.07
2018-05-15T22:29:27.052Z,2.57
2018-05-15T22:31:54.622Z,2.40
2018-05-15T22:34:22.149Z,2.40
2018-05-15T22:36:49.658Z,2.37
2018-05-15T22:39:18.868Z,1.93
2018-05-15T22:41:46.378Z,2.27
2018-05-15T22:44:13.867Z,2.10
2018-05-15T22:46:42.148Z,2.40
2018-05-15T22:49:10.430Z,2.10
2018-05-15T22:51:37.935Z,2.23
2018-05-15T22:54:05.452Z,3.60
2018-05-15T22:56:33.918Z,2.30
2018-05-15T22:59:01.440Z,1.90
2018-05-15T23:01:28.950Z,2.47
2018-05-15T23:03:56.440Z,2.50
2018-05-15T23:06:23.987Z,2.30
2018-05-15T23:08:51.491Z,2.90
2018-05-15T23:11:20.706Z,1.93
2018-05-15T23:13:48.207Z,2.57
2018-05-15T23:16:15.723Z,1.63
2018-05-15T23:18:43.237Z,2.23
2018-05-15T23:21:12.702Z,1.90
2018-05-15T23:23:40.356Z,2.77
2018-05-15T23:26:07.864Z,2.50
2018-05-15T23:28:36.896Z,1.80
2018-05-15T23:31:04.401Z,2.00
2018-05-15T23:33:31.932Z,2.33
2018-05-15T23:35:59.430Z,2.70
2018-05-15T23:38:27.008Z,2.80
2018-05-15T23:40:55.283Z,3.13
2018-05-15T23:43:23.559Z,4.13
2018-05-15T23:45:51.847Z,3.30
2018-05-15T23:48:19.339Z,3.47
2018-05-15T23:50:46.851Z,3.43
2018-05-15T23:53:15.120Z,3.60
2018-05-15T23:55:44.183Z,4.10
2018-05-15T23:58:11.680Z,4.17
